createdAt,value
2023-07-28T00:01:13.401Z,81.5
2023-07-28T00:06:14.307Z,81.19376
2023-07-28T00:11:15.265Z,81.19376
2023-07-28T00:16:16.324Z,81.80761
2023-07-28T00:21:17.223Z,81.80761
2023-07-28T00:26:18.130Z,82.11659
2023-07-28T00:31:19.124Z,83.05192
2023-07-28T00:36:20.119Z,82.73874
2023-07-28T00:41:21.043Z,82.42697
2023-07-28T00:46:22.008Z,83.05192
2023-07-28T00:51:23.162Z,83.05192
2023-07-28T00:56:24.069Z,83.36652
2023-07-28T01:01:24.994Z,83.68254
2023-07-28T01:06:26.012Z,83.05192
2023-07-28T01:11:26.922Z,83.36652
2023-07-28T01:16:27.919Z,83.05192
2023-07-28T01:21:28.850Z,84.0
2023-07-28T01:26:29.749Z,84.0
2023-07-28T01:31:30.695Z,83.36652
2023-07-28T01:36:31.726Z,82.73874
2023-07-28T01:41:32.757Z,82.73874
2023-07-28T01:46:34.154Z,82.73874
2023-07-28T01:51:35.350Z,83.68254
2023-07-28T01:56:36.544Z,83.36652
2023-07-28T02:01:37.778Z,83.68254
2023-07-28T02:06:38.759Z,84.31891
2023-07-28T02:11:39.684Z,84.31891
2023-07-28T02:16:40.632Z,82.73874
2023-07-28T02:21:41.594Z,82.73874
2023-07-28T02:26:42.556Z,83.05192
2023-07-28T02:31:43.541Z,83.36652
2023-07-28T02:36:44.479Z,83.05192
2023-07-28T02:41:45.362Z,82.42697
2023-07-28T02:46:46.361Z,82.73874
2023-07-28T02:51:47.313Z,83.36652
2023-07-28T02:56:48.280Z,83.36652
2023-07-28T03:01:49.246Z,82.42697
2023-07-28T03:06:50.218Z,82.42697
2023-07-28T03:11:51.141Z,82.73874
2023-07-28T03:16:52.073Z,83.05192
2023-07-28T03:21:52.984Z,83.05192
2023-07-28T03:26:53.910Z,82.73874
2023-07-28T03:31:54.906Z,82.73874
2023-07-28T03:36:55.882Z,82.73874
2023-07-28T03:41:56.803Z,82.73874
2023-07-28T03:46:57.682Z,82.42697
2023-07-28T03:51:58.697Z,82.73874
2023-07-28T03:56:59.641Z,82.42697
2023-07-28T04:02:00.535Z,83.05192
2023-07-28T04:07:01.438Z,82.73874
2023-07-28T04:12:02.325Z,82.73874
2023-07-28T04:17:03.225Z,83.05192
2023-07-28T04:22:04.273Z,82.42697
2023-07-28T04:27:05.511Z,81.80761
2023-07-28T04:32:07.489Z,81.5
2023-07-28T04:37:08.729Z,81.19376
2023-07-28T04:42:09.671Z,80.88889
2023-07-28T04:47:10.607Z,81.5
2023-07-28T04:52:11.524Z,81.5
2023-07-28T04:57:15.110Z,81.5
2023-07-28T05:02:17.323Z,81.80761
2023-07-28T05:07:18.207Z,81.80761
2023-07-28T05:12:19.126Z,82.42697
2023-07-28T05:17:20.056Z,81.5
2023-07-28T05:22:20.959Z,82.11659
2023-07-28T05:27:21.846Z,82.42697
2023-07-28T05:32:22.923Z,82.42697
2023-07-28T05:37:23.937Z,81.80761
2023-07-28T05:42:24.885Z,81.80761
2023-07-28T05:47:25.923Z,81.80761
2023-07-28T05:52:26.910Z,81.19376
2023-07-28T05:57:27.865Z,81.5
2023-07-28T06:02:28.841Z,82.11659
2023-07-28T06:07:29.804Z,81.19376
2023-07-28T06:12:30.810Z,80.58537
2023-07-28T06:17:31.778Z,80.88889
2023-07-28T06:22:32.706Z,80.58537
2023-07-28T06:27:33.603Z,81.19376
2023-07-28T06:32:34.534Z,81.5
2023-07-28T06:37:35.480Z,80.58537
2023-07-28T06:42:36.399Z,81.5
2023-07-28T06:47:37.339Z,81.5
2023-07-28T06:52:38.257Z,80.58537
2023-07-28T06:57:41.443Z,81.19376
2023-07-28T07:02:42.659Z,80.58537
2023-07-28T07:07:43.566Z,79.68282
2023-07-28T07:12:44.481Z,79.38462
2023-07-28T07:17:45.439Z,79.38462
2023-07-28T07:22:46.410Z,79.38462
2023-07-28T07:27:47.354Z,80.28319
2023-07-28T07:32:48.287Z,79.68282
2023-07-28T07:37:49.229Z,79.68282
2023-07-28T07:42:50.181Z,79.38462
2023-07-28T07:47:51.127Z,79.08772
2023-07-28T07:52:52.117Z,78.79212
2023-07-28T07:57:52.989Z,79.38462
2023-07-28T08:02:53.944Z,79.38462
2023-07-28T08:07:54.916Z,79.38462
2023-07-28T08:12:55.879Z,78.49782
2023-07-28T08:17:56.866Z,77.91304
2023-07-28T08:22:57.822Z,78.79212
2023-07-28T08:27:58.746Z,77.62256
2023-07-28T08:32:59.786Z,78.20479
2023-07-28T08:38:00.691Z,79.98234
2023-07-28T08:43:01.727Z,79.68282
2023-07-28T08:48:02.768Z,79.98234
2023-07-28T08:53:03.705Z,79.98234
2023-07-28T08:58:05.054Z,79.98234
2023-07-28T09:03:06.418Z,78.79212
2023-07-28T09:08:07.757Z,78.79212
2023-07-28T09:13:08.807Z,78.79212
2023-07-28T09:18:09.775Z,78.49782
2023-07-28T09:23:10.767Z,76.75862
2023-07-28T09:28:12.854Z,77.62256
2023-07-28T09:33:13.931Z,78.20479
2023-07-28T09:38:14.839Z,78.79212
2023-07-28T09:43:15.803Z,81.5
2023-07-28T09:48:16.754Z,81.80761
2023-07-28T09:53:17.713Z,80.28319
2023-07-28T09:58:18.640Z,79.38462
2023-07-28T10:03:19.690Z,79.38462
2023-07-28T10:08:20.701Z,78.20479
2023-07-28T10:13:21.582Z,78.49782
2023-07-28T10:18:22.511Z,77.91304
2023-07-28T10:23:23.452Z,78.79212
2023-07-28T10:28:24.418Z,77.33333
2023-07-28T10:33:25.474Z,77.62256
2023-07-28T10:38:26.405Z,77.62256
2023-07-28T10:43:27.330Z,78.20479
2023-07-28T10:48:28.254Z,77.04536
2023-07-28T10:53:29.307Z,75.34328
2023-07-28T10:58:30.208Z,75.06383
2023-07-28T11:03:31.188Z,75.06383
2023-07-28T11:08:32.116Z,76.47312
2023-07-28T11:18:39.522Z,74.78556
2023-07-28T11:23:40.456Z,74.78556
2023-07-28T11:28:41.340Z,73.41176
2023-07-28T11:33:42.287Z,73.68421
2023-07-28T11:38:43.463Z,73.14046
2023-07-28T11:43:44.397Z,72.87029
2023-07-28T11:48:45.362Z,73.41176
2023-07-28T11:53:46.346Z,72.87029
2023-07-28T11:58:47.252Z,72.60125
2023-07-28T12:03:48.337Z,71.27273
2023-07-28T12:08:49.350Z,70.74897
2023-07-28T12:18:54.334Z,69.71429
2023-07-28T12:34:10.642Z,69.97137
2023-07-28T12:44:17.381Z,71.01031
2023-07-28T12:54:22.437Z,71.53623
2023-07-28T12:59:26.420Z,71.53623
2023-07-28T13:04:27.671Z,70.74897
2023-07-28T13:14:32.575Z,70.74897
2023-07-28T13:19:33.470Z,70.22951
2023-07-28T13:24:34.399Z,71.01031
2023-07-28T13:29:35.364Z,70.48871
2023-07-28T13:34:36.312Z,70.74897
2023-07-28T13:39:37.279Z,71.80083
2023-07-28T13:59:54.819Z,74.23256
2023-07-28T14:04:55.817Z,71.80083
2023-07-28T14:09:56.766Z,70.74897
2023-07-28T14:14:57.702Z,72.60125
2023-07-28T14:19:58.592Z,73.41176
2023-07-28T14:24:59.561Z,74.50847
2023-07-28T14:30:00.471Z,73.95781
2023-07-28T14:35:01.389Z,72.60125
2023-07-28T14:40:02.353Z,71.53623
2023-07-28T14:45:03.320Z,69.45825
2023-07-28T14:50:04.280Z,69.97137
2023-07-28T14:55:05.497Z,69.97137
2023-07-28T15:00:06.663Z,71.27273
2023-07-28T15:05:07.867Z,72.33333
2023-07-28T15:10:08.824Z,71.53623
2023-07-28T15:15:09.792Z,70.74897
2023-07-28T15:20:10.704Z,73.68421
2023-07-28T15:25:11.635Z,72.06653
2023-07-28T15:30:12.587Z,73.68421
2023-07-28T15:35:13.522Z,75.06383
2023-07-28T15:40:14.504Z,74.23256
2023-07-28T15:45:15.522Z,74.50847
2023-07-28T15:50:16.457Z,77.04536
2023-07-28T15:55:17.378Z,76.18884
2023-07-28T16:00:18.345Z,75.90578
2023-07-28T16:05:19.278Z,76.47312
2023-07-28T16:10:20.266Z,74.78556
2023-07-28T16:15:21.193Z,76.75862
2023-07-28T16:20:22.123Z,75.62393
2023-07-28T16:25:23.047Z,75.06383
2023-07-28T16:30:24.014Z,75.06383
2023-07-28T16:35:24.959Z,74.78556
2023-07-28T16:40:26.151Z,76.75862
2023-07-28T16:45:27.064Z,75.34328
2023-07-28T16:50:27.959Z,75.62393
2023-07-28T16:55:28.928Z,75.34328
2023-07-28T17:00:30.104Z,74.78556
2023-07-28T17:05:30.995Z,75.06383
2023-07-28T17:10:31.871Z,75.34328
2023-07-28T17:15:39.925Z,74.78556
2023-07-28T17:20:41.878Z,73.95781
2023-07-28T17:25:42.832Z,73.68421
2023-07-28T17:30:43.802Z,74.23256
2023-07-28T17:35:44.748Z,74.78556
2023-07-28T17:40:45.729Z,75.06383
2023-07-28T17:45:46.754Z,75.34328
2023-07-28T17:50:47.636Z,75.34328
2023-07-28T17:55:48.539Z,75.62393
2023-07-28T18:00:49.482Z,75.06383
2023-07-28T18:05:50.420Z,75.34328
2023-07-28T18:10:51.349Z,75.06383
2023-07-28T18:15:52.272Z,74.23256
2023-07-28T18:20:53.218Z,75.06383
2023-07-28T18:25:54.148Z,74.78556
2023-07-28T18:30:55.121Z,75.06383
2023-07-28T18:35:56.121Z,75.06383
2023-07-28T18:40:57.094Z,75.34328
2023-07-28T18:45:58.056Z,75.34328
2023-07-28T18:50:58.979Z,75.34328
2023-07-28T18:55:59.886Z,75.06383
2023-07-28T19:01:00.792Z,75.34328
2023-07-28T19:06:01.698Z,75.62393
2023-07-28T19:11:02.599Z,75.34328
2023-07-28T19:16:03.526Z,75.62393
2023-07-28T19:21:04.471Z,75.90578
2023-07-28T19:26:05.711Z,75.62393
2023-07-28T19:31:06.919Z,75.34328
2023-07-28T19:36:08.302Z,75.34328
2023-07-28T19:41:11.124Z,75.34328
2023-07-28T19:46:13.933Z,75.34328
2023-07-28T19:51:14.897Z,75.34328
2023-07-28T19:56:15.815Z,75.34328
2023-07-28T20:01:16.780Z,75.62393
2023-07-28T20:06:17.772Z,76.18884
2023-07-28T20:11:18.750Z,76.18884
2023-07-28T20:16:19.693Z,76.18884
2023-07-28T20:21:20.695Z,76.47312
2023-07-28T20:26:21.608Z,76.18884
2023-07-28T20:31:22.588Z,76.18884
2023-07-28T20:36:23.611Z,77.04536
2023-07-28T20:41:24.551Z,76.47312
2023-07-28T20:46:25.470Z,77.04536
2023-07-28T20:51:26.428Z,77.33333
2023-07-28T20:56:27.331Z,77.33333
2023-07-28T21:01:28.268Z,76.75862
2023-07-28T21:06:29.226Z,77.04536
2023-07-28T21:11:30.127Z,76.47312
2023-07-28T21:16:31.096Z,76.75862
2023-07-28T21:21:32.097Z,76.75862
2023-07-28T21:26:33.018Z,76.75862
2023-07-28T21:31:33.944Z,76.47312
2023-07-28T21:36:35.350Z,76.47312
2023-07-28T21:41:36.515Z,76.18884
2023-07-28T21:46:37.656Z,76.18884
2023-07-28T21:51:38.821Z,76.47312
2023-07-28T21:56:39.759Z,76.18884
2023-07-28T22:01:40.700Z,76.18884
2023-07-28T22:06:41.650Z,76.47312
2023-07-28T22:11:42.729Z,76.75862
2023-07-28T22:16:43.693Z,77.04536
2023-07-28T22:21:44.615Z,77.33333
2023-07-28T22:26:45.635Z,77.33333
2023-07-28T22:31:46.576Z,77.33333
2023-07-28T22:36:47.586Z,77.04536
2023-07-28T22:41:48.542Z,76.75862
2023-07-28T22:46:49.517Z,76.75862
2023-07-28T22:51:50.414Z,76.47312
2023-07-28T22:56:51.330Z,76.47312
2023-07-28T23:01:52.255Z,76.47312
2023-07-28T23:06:53.173Z,76.75862
2023-07-28T23:11:54.122Z,77.04536
2023-07-28T23:16:55.072Z,77.33333
2023-07-28T23:21:56.114Z,77.33333
2023-07-28T23:26:57.003Z,77.33333
2023-07-28T23:31:57.903Z,77.33333
2023-07-28T23:36:58.929Z,77.62256
2023-07-28T23:41:59.851Z,77.62256
2023-07-28T23:47:00.843Z,77.62256
2023-07-28T23:52:01.962Z,77.91304
2023-07-28T23:57:02.897Z,77.91304
